Time;durP1;ratioP1;P1;durP2;ratioP2;P2;SDS_P1;SDS_P2;PMS_P1;PMS_P2;Temp;Humidity;BMP_temperature;BMP_pressure;BME280_temperature;BME280_humidity;BME280_pressure;Samples;Min_cycle;Max_cycle;Signal;HPM_P1;HPM_P2
2021/11/25 00:01:50;;;;;;;84.03;45.05;;;51.70;2227.20;;;;;;4978678;28;20027;-75
2021/11/25 00:04:18;;;;;;;86.18;46.30;;;51.70;2227.20;;;;;;4977817;28;20035;-74
2021/11/25 00:06:45;;;;;;;91.75;47.03;;;51.60;2227.20;;;;;;4979914;28;20102;-74
2021/11/25 00:09:11;;;;;;;88.90;46.63;;;51.60;2227.20;;;;;;4977322;28;20027;-74
2021/11/25 00:11:37;;;;;;;102.07;51.03;;;51.50;2227.20;;;;;;4960974;28;20027;-74
2021/11/25 00:14:04;;;;;;;95.72;48.47;;;;;;;;;;4959661;28;20110;-75
2021/11/25 00:16:30;;;;;;;97.88;48.28;;;51.50;2227.20;;;;;;4978657;28;20042;-74
2021/11/25 00:18:57;;;;;;;99.30;50.10;;;51.40;2227.20;;;;;;4977763;28;20035;-74
2021/11/25 00:21:23;;;;;;;101.88;48.35;;;51.50;2227.20;;;;;;4976768;28;20019;-74
2021/11/25 00:23:49;;;;;;;109.97;50.15;;;51.30;2227.20;;;;;;4977479;28;20134;-74
2021/11/25 00:26:16;;;;;;;104.15;50.03;;;26.50;2201.60;;;;;;4980036;28;20086;-74
2021/11/25 00:28:43;;;;;;;101.35;48.33;;;51.40;2227.20;;;;;;4976603;28;20045;-74
2021/11/25 00:31:09;;;;;;;113.45;51.85;;;51.20;2227.20;;;;;;4978377;28;20034;-74
2021/11/25 00:33:38;;;;;;;109.93;51.13;;;51.30;2227.20;;;;;;4973593;28;20019;-74
2021/11/25 00:36:05;;;;;;;100.90;50.15;;;51.40;2227.20;;;;;;4956019;29;20027;-75
2021/11/25 00:38:32;;;;;;;98.97;47.90;;;51.40;2227.20;;;;;;4967837;28;20049;-74
2021/11/25 00:40:58;;;;;;;98.38;49.40;;;51.40;2227.20;;;;;;4976597;28;20030;-74
2021/11/25 00:43:24;;;;;;;104.13;49.67;;;51.40;2227.20;;;;;;4976733;28;20035;-74
2021/11/25 00:45:50;;;;;;;99.20;48.85;;;51.40;2227.20;;;;;;4964881;28;20090;-74
2021/11/25 00:48:16;;;;;;;98.85;47.75;;;51.40;2227.20;;;;;;4961458;28;20035;-75
2021/11/25 00:50:42;;;;;;;100.72;48.67;;;51.40;2227.20;;;;;;4960194;28;20045;-74
2021/11/25 00:53:09;;;;;;;100.65;48.33;;;51.40;2227.20;;;;;;4977761;28;20019;-74
2021/11/25 00:55:37;;;;;;;98.22;47.70;;;51.50;2227.20;;;;;;4976277;28;20030;-74
2021/11/25 00:58:03;;;;;;;99.35;49.05;;;51.60;2227.20;;;;;;4976608;28;20493;-74
2021/11/25 01:00:28;;;;;;;108.93;53.58;;;51.60;2227.20;;;;;;4976311;28;20503;-74
2021/11/25 01:02:57;;;;;;;97.78;48.80;;;51.70;2227.20;;;;;;4975237;28;20570;-74
2021/11/25 01:05:23;;;;;;;102.35;49.92;;;51.70;2227.20;;;;;;4976623;28;20035;-74
2021/11/25 01:07:49;;;;;;;94.80;47.25;;;51.80;2227.20;;;;;;4974216;28;20038;-74
2021/11/25 01:10:18;;;;;;;104.88;50.28;;;;;;;;;;4960863;28;20480;-74
2021/11/25 01:12:44;;;;;;;106.03;49.30;;;;;;;;;;4976168;28;20030;-75
2021/11/25 01:15:14;;;;;;;86.65;43.28;;;;;;;;;;4975851;28;20111;-74
2021/11/25 01:17:41;;;;;;;85.28;43.40;;;;;;;;;;4976757;28;20022;-74
2021/11/25 01:20:11;;;;;;;88.53;43.45;;;;;;;;;;4975316;28;20078;-74
2021/11/25 01:22:37;;;;;;;87.07;44.45;;;;;;;;;;4958950;28;20468;-74
2021/11/25 01:25:04;;;;;;;94.45;42.67;;;;;;;;;;4975753;28;20054;-74
2021/11/25 01:27:30;;;;;;;95.30;45.78;;;;;;;;;;4958172;28;20105;-74
2021/11/25 01:29:57;;;;;;;92.75;43.25;;;;;;;;;;4975754;28;20023;-74
2021/11/25 01:32:23;;;;;;;107.95;49.25;;;;;;;;;;4973301;28;20101;-74
2021/11/25 01:34:49;;;;;;;109.22;49.80;;;;;;;;;;4978474;28;20027;-75
2021/11/25 01:37:15;;;;;;;118.03;50.97;;;;;;;;;;4958825;28;20030;-75
2021/11/25 01:39:42;;;;;;;113.13;51.20;;;;;;;;;;4977410;28;20031;-74
2021/11/25 01:42:08;;;;;;;112.97;50.17;;;;;;;;;;4981217;28;20023;-74
2021/11/25 01:44:34;;;;;;;115.32;49.90;;;;;;;;;;4981514;28;20732;-74
2021/11/25 01:47:03;;;;;;;109.18;47.92;;;;;;;;;;4963508;28;20381;-75
2021/11/25 01:49:29;;;;;;;96.45;47.28;;;;;;;;;;4982055;28;20023;-74
2021/11/25 01:51:58;;;;;;;93.05;45.25;;;;;;;;;;4981648;28;20121;-74
2021/11/25 01:54:27;;;;;;;90.00;45.78;;;;;;;;;;4964781;28;20029;-75
2021/11/25 01:56:55;;;;;;;85.78;42.72;;;;;;;;;;4980314;28;20027;-73
2021/11/25 01:59:21;;;;;;;82.38;41.97;;;;;;;;;;4979664;28;20124;-75
2021/11/25 02:01:48;;;;;;;82.72;41.65;;;;;;;;;;4980515;28;20087;-74
2021/11/25 02:04:14;;;;;;;83.60;42.67;;;;;;;;;;4981756;28;20035;-74
2021/11/25 02:06:42;;;;;;;88.03;43.65;;;;;;;;;;4981124;28;20107;-74
2021/11/25 02:09:10;;;;;;;89.22;43.72;;;;;;;;;;4980677;28;20075;-73
2021/11/25 02:11:37;;;;;;;90.38;44.85;;;;;;;;;;4979004;28;20479;-75
2021/11/25 02:14:04;;;;;;;87.90;44.90;;;;;;;;;;4981587;28;20037;-75
2021/11/25 02:16:30;;;;;;;95.57;45.80;;;;;;;;;;4982532;28;20023;-74
2021/11/25 02:18:57;;;;;;;93.15;44.30;;;;;;;;;;4982290;28;20026;-74
2021/11/25 02:21:25;;;;;;;88.80;44.30;;;;;;;;;;4982452;28;20030;-74
2021/11/25 02:23:51;;;;;;;91.10;40.17;;;;;;;;;;4982173;28;20031;-74
2021/11/25 02:26:17;;;;;;;97.97;46.08;;;;;;;;;;4966442;28;20102;-75
2021/11/25 02:28:44;;;;;;;108.05;47.42;;;;;;;;;;4981658;28;20031;-74
2021/11/25 02:31:11;;;;;;;108.80;45.75;;;;;;;;;;4982358;28;20059;-75
2021/11/25 02:33:39;;;;;;;98.50;43.88;;;;;;;;;;4980656;28;20019;-74
2021/11/25 02:36:05;;;;;;;107.80;48.55;;;;;;;;;;4963398;28;20026;-74
2021/11/25 02:38:31;;;;;;;110.03;48.95;;;;;;;;;;4981790;28;20512;-74
2021/11/25 02:40:58;;;;;;;101.97;47.15;;;;;;;;;;4981281;28;20034;-74
2021/11/25 02:43:29;;;;;;;92.22;43.40;;;;;;;;;;4983511;28;20081;-75
2021/11/25 02:45:56;;;;;;;93.00;43.85;;;;;;;;;;4982356;28;20050;-74
2021/11/25 02:48:30;;;;;;;92.72;42.63;;;;;;;;;;4983319;28;20023;-74
2021/11/25 02:50:58;;;;;;;92.05;42.88;;;;;;;;;;4966131;28;20102;-73
2021/11/25 02:53:26;;;;;;;89.55;43.33;;;;;;;;;;4973878;28;20107;-73
2021/11/25 02:55:56;;;;;;;97.13;43.58;;;;;;;;;;4981324;28;20027;-74
2021/11/25 02:58:22;;;;;;;93.13;43.25;;;;;;;;;;4985369;28;20042;-75
2021/11/25 03:00:49;;;;;;;105.30;45.00;;;;;;;;;;4983656;28;20023;-75
2021/11/25 03:03:16;;;;;;;94.43;43.10;;;;;;;;;;4983379;28;20102;-74
2021/11/25 03:05:43;;;;;;;104.10;45.72;;;;;;;;;;4977589;28;20035;-74
2021/11/25 03:08:10;;;;;;;108.95;45.08;;;;;;;;;;4979516;28;20027;-74
2021/11/25 03:10:42;;;;;;;109.88;48.53;;;;;;;;;;4979889;28;20019;-74
2021/11/25 03:13:09;;;;;;;134.00;59.20;;;;;;;;;;4978647;28;20481;-73
2021/11/25 03:15:36;;;;;;;108.82;49.28;;;;;;;;;;4978303;28;20488;-74
2021/11/25 03:18:03;;;;;;;110.30;48.15;;;;;;;;;;4977901;28;20467;-74
2021/11/25 03:20:29;;;;;;;111.22;48.95;;;;;;;;;;4977737;28;20117;-74
2021/11/25 03:22:55;;;;;;;121.30;48.90;;;;;;;;;;4978518;28;20023;-75
2021/11/25 03:25:21;;;;;;;122.95;48.13;;;;;;;;;;4978926;28;20042;-75
2021/11/25 03:27:48;;;;;;;115.60;48.70;;;;;;;;;;4976980;28;20034;-74
2021/11/25 03:30:14;;;;;;;114.97;48.50;;;;;;;;;;4980064;28;20082;-75
2021/11/25 03:32:40;;;;;;;112.20;49.67;;;;;;;;;;4981399;28;20132;-73
2021/11/25 03:35:08;;;;;;;115.70;46.97;;;;;;;;;;4981187;28;20026;-73
2021/11/25 03:37:35;;;;;;;119.03;49.90;;;;;;;;;;4978032;28;20030;-74
2021/11/25 03:40:07;;;;;;;118.40;49.50;;;;;;;;;;4961309;28;20360;-74
2021/11/25 03:42:34;;;;;;;107.38;47.47;;;;;;;;;;4980232;28;20089;-73
2021/11/25 03:45:01;;;;;;;93.05;47.88;;;;;;;;;;4978763;28;20043;-74
2021/11/25 03:47:27;;;;;;;103.50;45.67;;;;;;;;;;4977036;28;20102;-74
2021/11/25 03:49:53;;;;;;;117.82;50.42;;;;;;;;;;4976051;28;20030;-75
2021/11/25 03:52:20;;;;;;;100.25;45.47;;;;;;;;;;4979654;28;20132;-75
2021/11/25 03:54:46;;;;;;;107.30;47.05;;;;;;;;;;4977457;28;20468;-75
2021/11/25 03:57:13;;;;;;;95.97;41.80;;;;;;;;;;4979294;28;20031;-76
2021/11/25 03:59:39;;;;;;;107.05;47.75;;;;;;;;;;4980132;28;20490;-74
2021/11/25 04:02:07;;;;;;;107.70;47.03;;;;;;;;;;4981246;28;20033;-74
2021/11/25 04:04:34;;;;;;;118.22;50.78;;;;;;;;;;4980310;28;20034;-75
2021/11/25 04:07:00;;;;;;;105.53;46.35;;;;;;;;;;4969118;28;20047;-75
2021/11/25 04:09:26;;;;;;;118.03;48.15;;;;;;;;;;4981211;28;20034;-76
2021/11/25 04:11:53;;;;;;;116.53;48.17;;;;;;;;;;4981773;28;20082;-74
2021/11/25 04:14:19;;;;;;;122.32;49.33;;;;;;;;;;4982118;28;20029;-74
2021/11/25 04:16:46;;;;;;;113.38;48.15;;;;;;;;;;4979950;28;20406;-76
2021/11/25 04:19:12;;;;;;;104.43;43.83;;;;;;;;;;4975387;28;20479;-74
2021/11/25 04:21:38;;;;;;;124.35;50.47;;;;;;;;;;4975679;28;20046;-75
2021/11/25 04:24:04;;;;;;;124.10;50.20;;;;;;;;;;4963662;28;20494;-74
2021/11/25 04:26:30;;;;;;;114.38;48.58;;;;;;;;;;4979209;28;20487;-73
2021/11/25 04:28:56;;;;;;;111.57;45.95;;;;;;;;;;4978704;28;20045;-74
2021/11/25 04:36:52;;;;;;;105.47;48.75;;;;;;;;;;4979652;28;20033;-74
2021/11/25 04:39:18;;;;;;;94.47;43.28;;;;;;;;;;4979361;28;20027;-75
2021/11/25 04:41:44;;;;;;;93.25;44.03;;;;;;;;;;4977914;28;20027;-75
2021/11/25 04:44:10;;;;;;;102.22;45.33;;;;;;;;;;4958740;28;20081;-73
2021/11/25 04:46:38;;;;;;;97.97;47.65;;;;;;;;;;4975723;28;20058;-73
2021/11/25 04:49:05;;;;;;;94.10;44.20;;;;;;;;;;4964328;28;20181;-74
2021/11/25 04:51:33;;;;;;;101.38;47.45;;;;;;;;;;4985310;28;20392;-73
2021/11/25 04:53:59;;;;;;;90.50;48.53;;;;;;;;;;4975744;28;20018;-74
2021/11/25 04:56:25;;;;;;;94.57;46.58;;;;;;;;;;4969703;28;20418;-74
2021/11/25 04:58:51;;;;;;;92.85;45.58;;;;;;;;;;4978856;28;20033;-74
2021/11/25 05:01:17;;;;;;;86.35;41.70;;;;;;;;;;4987949;28;20401;-74
2021/11/25 05:03:43;;;;;;;94.07;45.38;;;;;;;;;;4975374;28;20027;-73
2021/11/25 05:06:09;;;;;;;86.45;45.55;;;;;;;;;;4975418;28;20105;-74
2021/11/25 05:08:35;;;;;;;95.22;45.38;;;;;;;;;;4962390;28;20221;-75
2021/11/25 05:11:03;;;;;;;92.53;45.38;;;;;;;;;;4963866;28;20387;-74
2021/11/25 05:13:29;;;;;;;102.13;50.30;;;;;;;;;;4978597;28;20488;-74
2021/11/25 05:15:56;;;;;;;98.18;48.35;;;;;;;;;;4977545;28;20031;-74
2021/11/25 05:18:22;;;;;;;97.05;51.15;;;;;;;;;;4971787;28;20063;-74
2021/11/25 05:20:48;;;;;;;100.60;51.60;;;;;;;;;;4975482;28;20023;-74
2021/11/25 05:23:16;;;;;;;90.97;46.65;;;;;;;;;;4975137;28;20019;-76
2021/11/25 05:25:42;;;;;;;103.35;47.72;;;;;;;;;;4968723;28;20034;-73
2021/11/25 05:28:08;;;;;;;93.28;47.78;;;;;;;;;;4982256;28;20027;-74
2021/11/25 05:30:34;;;;;;;92.82;47.95;;;;;;;;;;4981754;28;20031;-74
2021/11/25 05:33:01;;;;;;;99.60;51.55;;;;;;;;;;4974339;28;20488;-75
2021/11/25 05:35:27;;;;;;;95.65;49.92;;;;;;;;;;4974828;28;20030;-75
2021/11/25 05:37:54;;;;;;;97.70;47.60;;;;;;;;;;4977916;28;20047;-73
2021/11/25 05:40:20;;;;;;;97.47;46.63;;;;;;;;;;4971123;28;20054;-74
2021/11/25 05:42:47;;;;;;;103.45;49.95;;;;;;;;;;4966667;28;20392;-76
2021/11/25 05:45:14;;;;;;;98.57;49.88;;;;;;;;;;4974717;28;20031;-76
2021/11/25 05:47:43;;;;;;;96.18;47.38;;;;;;;;;;4967750;28;20039;-78
2021/11/25 05:50:17;;;;;;;105.90;49.67;;;;;;;;;;4991500;28;20027;-77
2021/11/25 05:52:44;;;;;;;119.68;51.08;;;;;;;;;;4980713;28;20027;-73
2021/11/25 05:55:10;;;;;;;97.35;48.45;;;;;;;;;;4975747;28;20026;-74
2021/11/25 05:57:36;;;;;;;97.55;50.50;;;;;;;;;;4974110;28;20030;-72
2021/11/25 06:00:07;;;;;;;101.45;54.35;;;;;;;;;;4974726;28;20051;-74
2021/11/25 06:02:33;;;;;;;104.63;51.78;;;;;;;;;;4979464;28;20392;-75
2021/11/25 06:04:59;;;;;;;129.63;58.63;;;;;;;;;;4981947;28;20082;-73
2021/11/25 06:07:25;;;;;;;113.55;53.28;;;;;;;;;;4980718;28;20063;-73
2021/11/25 06:09:51;;;;;;;102.10;51.42;;;;;;;;;;4977091;28;20027;-73
2021/11/25 06:12:17;;;;;;;104.30;55.28;;;;;;;;;;4974009;28;20054;-74
2021/11/25 06:14:47;;;;;;;110.07;56.00;;;;;;;;;;4977919;28;20105;-76
2021/11/25 06:17:20;;;;;;;144.95;89.70;;;;;;;;;;4994341;28;20023;-77
2021/11/25 06:19:53;;;;;;;138.40;77.82;;;;;;;;;;4984950;28;20043;-77
2021/11/25 06:22:19;;;;;;;112.28;61.35;;;;;;;;;;4967173;28;20062;-73
2021/11/25 06:24:45;;;;;;;97.47;53.10;;;;;;;;;;4965961;28;20279;-77
2021/11/25 06:27:12;;;;;;;98.82;54.78;;;;;;;;;;4965474;28;20430;-76
2021/11/25 06:29:38;;;;;;;109.70;52.97;;;;;;;;;;4974281;28;20039;-77
2021/11/25 06:32:04;;;;;;;101.43;49.42;;;;;;;;;;4974085;28;20041;-77
2021/11/25 06:34:30;;;;;;;97.57;49.13;;;;;;;;;;4964336;28;20038;-76
2021/11/25 06:36:56;;;;;;;98.78;50.55;;;;;;;;;;4981727;28;20030;-78
2021/11/25 06:39:22;;;;;;;109.32;52.15;;;;;;;;;;4980926;28;20022;-77
2021/11/25 06:41:48;;;;;;;97.75;50.30;;;;;;;;;;4981189;28;20023;-76
2021/11/25 06:44:14;;;;;;;94.90;49.25;;;;;;;;;;4977812;28;20036;-74
2021/11/25 06:46:41;;;;;;;123.97;66.20;;;;;;;;;;4977788;28;20055;-75
2021/11/25 06:49:07;;;;;;;151.60;82.90;;;;;;;;;;4976147;28;20031;-74
2021/11/25 06:51:33;;;;;;;173.10;98.05;;;;;;;;;;4980236;28;20026;-74
2021/11/25 06:54:00;;;;;;;124.18;71.53;;;;;;;;;;4975659;28;20023;-75
2021/11/25 06:56:26;;;;;;;125.80;74.00;;;;;;;;;;4974827;28;20043;-76
2021/11/25 06:58:52;;;;;;;118.32;74.32;;;;;;;;;;4975969;28;20396;-75
2021/11/25 07:01:19;;;;;;;107.82;68.25;;;;;;;;;;4971476;28;20504;-74
2021/11/25 07:03:45;;;;;;;114.88;68.00;;;;;;;;;;4976568;28;20058;-75
2021/11/25 07:06:11;;;;;;;116.97;77.38;;;;;;;;;;4977026;28;20057;-75
2021/11/25 07:08:40;;;;;;;116.07;76.93;;;;;;;;;;4980205;28;20015;-76
2021/11/25 07:11:06;;;;;;;147.75;91.38;;;;;;;;;;4970382;28;20121;-76
2021/11/25 07:13:32;;;;;;;97.25;59.08;;;;;;;;;;4983100;28;20090;-76
2021/11/25 07:15:58;;;;;;;108.78;63.10;;;;;;;;;;4979223;28;20033;-75
2021/11/25 07:18:24;;;;;;;118.63;72.43;;;;;;;;;;4971045;28;20074;-74
2021/11/25 07:20:51;;;;;;;113.82;75.28;;;;;;;;;;4983024;28;20109;-73
2021/11/25 07:23:17;;;;;;;116.82;72.68;;;;;;;;;;4980062;28;20015;-75
2021/11/25 07:25:44;;;;;;;86.30;55.95;;;;;;;;;;4979452;28;20107;-78
2021/11/25 07:28:10;;;;;;;84.55;55.22;;;;;;;;;;4979171;28;20033;-76
2021/11/25 07:30:36;;;;;;;76.05;53.17;;;;;;;;;;4979648;28;20046;-76
2021/11/25 07:33:02;;;;;;;77.05;53.75;;;;;;;;;;4960784;28;20093;-74
2021/11/25 07:35:28;;;;;;;77.32;51.88;;;;;;;;;;4968246;28;20026;-74
2021/11/25 07:37:55;;;;;;;74.75;50.00;;;;;;;;;;4972550;28;20023;-75
2021/11/25 07:40:24;;;;;;;72.85;48.42;;;;;;;;;;4975652;28;20500;-74
2021/11/25 07:42:52;;;;;;;68.82;45.65;;;;;;;;;;4981259;28;20042;-75
2021/11/25 07:45:19;;;;;;;59.88;41.88;;;;;;;;;;4975959;28;20118;-73
2021/11/25 07:47:45;;;;;;;61.17;39.42;;;;;;;;;;4976496;28;20062;-75
2021/11/25 07:50:12;;;;;;;54.95;37.95;;;;;;;;;;4980055;28;20026;-75
2021/11/25 07:52:40;;;;;;;58.10;36.88;;;;;;;;;;4978517;28;20098;-76
2021/11/25 07:55:08;;;;;;;55.75;36.65;;;;;;;;;;4977928;28;20042;-77
2021/11/25 07:57:34;;;;;;;55.33;37.38;;;;;;;;;;4974010;28;20525;-75
2021/11/25 08:00:04;;;;;;;58.35;37.90;;;;;;;;;;4979873;28;20058;-75
2021/11/25 08:02:32;;;;;;;64.13;42.97;;;;;;;;;;4978934;28;20101;-75
2021/11/25 08:04:58;;;;;;;68.05;45.83;;;;;;;;;;4970632;28;20047;-75
2021/11/25 08:07:24;;;;;;;69.85;48.35;;;;;;;;;;4971458;28;20046;-77
2021/11/25 08:09:51;;;;;;;70.20;46.47;;;;;;;;;;4973254;28;20027;-77
2021/11/25 08:12:17;;;;;;;65.93;44.78;;;;;;;;;;4974518;28;20428;-73
2021/11/25 08:14:45;;;;;;;69.07;45.15;;;;;;;;;;4975312;28;20110;-73
2021/11/25 08:17:11;;;;;;;64.00;40.75;;;;;;;;;;4983406;28;20046;-73
2021/11/25 08:19:37;;;;;;;58.50;39.85;;;;;;;;;;4989673;28;20065;-74
2021/11/25 08:22:04;;;;;;;60.53;40.63;;;;;;;;;;5005995;28;20027;-73
2021/11/25 08:24:30;;;;;;;56.25;37.10;;;;;;;;;;4986116;28;20050;-73
2021/11/25 08:26:58;;;;;;;53.97;36.33;;;;;;;;;;4988494;28;20031;-73
2021/11/25 08:29:27;;;;;;;49.65;35.47;;;;;;;;;;4986681;28;20053;-73
2021/11/25 08:31:54;;;;;;;59.65;36.10;;;;;;;;;;4985070;28;20030;-74
2021/11/25 08:34:20;;;;;;;49.20;34.88;;;;;;;;;;4985212;28;20019;-74
2021/11/25 08:36:48;;;;;;;48.50;35.47;;;;;;;;;;4982729;28;20085;-76
2021/11/25 08:39:14;;;;;;;57.90;38.45;;;;;;;;;;4974623;28;20076;-74
2021/11/25 08:41:40;;;;;;;57.67;38.00;;;;;;;;;;4953426;28;20057;-77
2021/11/25 08:44:06;;;;;;;57.05;37.83;;;;;;;;;;4973148;28;20054;-75
2021/11/25 08:46:32;;;;;;;62.88;39.78;;;;;;;;;;4973523;28;20073;-75
2021/11/25 08:48:59;;;;;;;58.17;38.78;;;;;;;;;;4967585;28;20371;-75
2021/11/25 08:51:26;;;;;;;53.22;36.20;;;;;;;;;;4980660;28;20322;-76
2021/11/25 08:53:52;;;;;;;50.38;36.85;;;;;;;;;;4979451;28;20027;-75
2021/11/25 08:56:18;;;;;;;52.75;36.42;;;;;;;;;;4976551;28;20022;-76
2021/11/25 08:58:44;;;;;;;50.30;35.92;;;;;;;;;;4959687;28;20046;-76
2021/11/25 09:01:10;;;;;;;59.30;37.42;;;;;;;;;;4974153;28;20038;-75
2021/11/25 09:03:36;;;;;;;56.20;36.47;;;;;;;;;;4974743;28;20165;-74
2021/11/25 09:06:04;;;;;;;50.20;36.92;;;;;;;;;;4969690;28;20101;-74
2021/11/25 09:08:30;;;;;;;56.88;37.08;;;;;;;;;;4971571;28;20023;-73
2021/11/25 09:10:57;;;;;;;54.95;39.05;;;;;;;;;;4974837;28;20035;-74
2021/11/25 09:13:23;;;;;;;54.75;40.42;;;;;;;;;;4975653;28;20556;-73
2021/11/25 09:15:50;;;;;;;59.50;39.45;;;;;;;;;;4978470;28;20027;-76
2021/11/25 09:18:16;;;;;;;53.00;39.97;;;;;;;;;;4976567;28;20288;-75
2021/11/25 09:20:43;;;;;;;51.30;35.75;;;;;;;;;;4955701;28;20023;-75
2021/11/25 09:23:12;;;;;;;53.58;37.15;;;;;;;;;;4971637;28;20576;-77
2021/11/25 09:25:42;;;;;;;60.25;39.05;;;;;;;;;;4958240;28;20047;-77
2021/11/25 09:28:14;;;;;;;51.28;34.95;;;;;;;;;;4978393;28;20019;-77
2021/11/25 09:30:41;;;;;;;56.47;35.65;;;;;;;;;;4981814;28;20054;-78
2021/11/25 09:33:10;;;;;;;69.30;41.67;;;;;;;;;;4982237;28;20114;-78
2021/11/25 09:35:40;;;;;;;59.65;42.42;;;;;;;;;;4965231;28;20073;-78
2021/11/25 09:38:06;;;;;;;63.72;41.17;;;;;;;;;;4982482;28;20101;-78
2021/11/25 09:40:34;;;;;;;65.53;45.92;;;;;;;;;;4984168;28;20042;-78
2021/11/25 09:43:05;;;;;;;60.22;44.55;;;;;;;;;;4986074;28;20042;-76
2021/11/25 09:45:32;;;;;;;89.80;45.78;;;;;;;;;;4971091;28;20090;-74
2021/11/25 09:48:00;;;;;;;66.45;43.78;;;;;;;;;;4974798;28;20043;-73
2021/11/25 09:50:27;;;;;;;60.05;42.05;;;;;;;;;;4974818;28;20033;-77
2021/11/25 09:52:55;;;;;;;66.72;43.45;;;;;;;;;;4982922;28;20055;-78
2021/11/25 09:55:21;;;;;;;67.85;45.80;;;;;;;;;;4974993;28;20385;-79
2021/11/25 09:57:51;;;;;;;79.40;48.90;;;;;;;;;;4960638;28;20400;-79
2021/11/25 10:00:17;;;;;;;97.63;58.95;;;;;;;;;;4953802;28;20035;-76
2021/11/25 10:02:43;;;;;;;94.90;60.88;;;;;;;;;;4983930;28;20109;-77
2021/11/25 10:05:09;;;;;;;88.40;57.90;;;;;;;;;;4977472;28;20034;-76
2021/11/25 10:07:45;;;;;;;99.05;61.63;;;;;;;;;;4961038;28;20464;-78
2021/11/25 10:10:31;;;;;;;93.78;62.80;;;;;;;;;;4964818;28;20031;-77
2021/11/25 10:12:59;;;;;;;100.82;66.60;;;;;;;;;;4959671;28;20045;-78
2021/11/25 10:15:38;;;;;;;106.20;71.88;;;;;;;;;;4962877;28;20415;-78
2021/11/25 10:18:13;;;;;;;133.70;87.72;;;;;;;;;;4958470;28;20051;-78
2021/11/25 10:20:40;;;;;;;111.10;69.80;;;;;;;;;;4979341;28;20026;-74
2021/11/25 10:23:07;;;;;;;112.50;69.07;;;;;;;;;;4976506;28;20023;-75
2021/11/25 10:25:48;;;;;;;117.82;70.00;;;;;;;;;;4974974;28;20473;-75
2021/11/25 10:28:20;;;;;;;123.65;74.07;;;;;;;;;;4977562;28;20473;-74
2021/11/25 10:30:47;;;;;;;125.75;74.50;;;;;;;;;;4976771;28;20035;-75
2021/11/25 10:33:13;;;;;;;134.02;78.75;;;;;;;;;;4975371;28;20022;-74
2021/11/25 10:39:25;;;;;;;117.72;75.93;;;;;;;;;;4934689;29;20051;-75
2021/11/25 10:41:17;;;;;;;127.60;78.85;;;;;;;;;;4929113;29;20166;-74
2021/11/25 10:43:44;;;;;;;119.95;75.80;;;;;;;;;;4938878;29;20067;-75
2021/11/25 10:46:11;;;;;;;134.35;79.20;;;;;;;;;;4946885;29;20032;-75
2021/11/25 10:48:40;;;;;;;125.78;85.43;;;;;;;;;;4939535;29;20402;-77
2021/11/25 10:51:38;;;;;;;121.82;76.50;;;;;;;;;;4935190;29;20075;-77
2021/11/25 10:54:07;;;;;;;129.88;75.82;;;;;;;;;;4909596;29;20068;-75
2021/11/25 10:56:37;;;;;;;125.45;75.03;;;;;;;;;;4914032;29;20052;-75
2021/11/25 10:59:06;;;;;;;124.85;75.63;;;;;;;;;;4920692;29;20032;-77
2021/11/25 11:01:36;;;;;;;106.35;68.35;;;;;;;;;;4914285;29;20395;-76
2021/11/25 11:04:03;;;;;;;114.13;70.15;;;;;;;;;;4915765;29;20039;-75
2021/11/25 11:06:33;;;;;;;118.90;73.13;;;;;;;;;;4916602;29;20050;-77
2021/11/25 11:08:59;;;;;;;112.25;72.72;;;;;;;;;;4922981;29;20044;-74
2021/11/25 11:11:26;;;;;;;115.85;71.70;;;;;;;;;;4920215;29;20447;-74
2021/11/25 11:14:19;;;;;;;117.60;72.00;;;;;;;;;;4921856;29;20024;-74
2021/11/25 11:19:15;;;;;;;104.47;70.30;;;;;;;;;;4935538;29;20039;-75
2021/11/25 11:21:53;;;;;;;110.05;71.18;;;;;;;;;;4948118;29;20059;-74
2021/11/25 11:24:23;;;;;;;122.13;75.50;;;;;;;;;;4939352;29;20043;-75
2021/11/25 11:26:53;;;;;;;117.22;75.10;;;;;;;;;;4941500;29;20039;-77
2021/11/25 11:29:21;;;;;;;121.28;74.55;;;;;;;;;;4966947;28;20404;-75
2021/11/25 11:31:48;;;;;;;121.13;76.45;;;;;;;;;;4973961;28;20106;-75
2021/11/25 11:34:15;;;;;;;125.95;75.55;;;;;;;;;;4956968;28;20505;-76
2021/11/25 11:36:45;;;;;;;112.32;74.53;;;;;;;;;;4975207;28;20050;-77
2021/11/25 11:39:13;;;;;;;114.70;73.15;;;;;;;;;;4976020;28;20061;-76
2021/11/25 11:41:42;;;;;;;118.15;72.15;;;;;;;;;;4960700;28;20026;-76
2021/11/25 11:44:08;;;;;;;114.32;72.78;;;;;;;;;;4978749;28;20050;-76
2021/11/25 11:46:38;;;;;;;109.60;74.78;;;;;;;;;;4975102;28;20027;-77
2021/11/25 11:49:07;;;;;;;115.15;76.15;;;;;;;;;;4969431;28;20035;-77
2021/11/25 11:51:33;;;;;;;116.25;75.78;;;;;;;;;;4976299;28;20548;-75
2021/11/25 11:54:00;;;;;;;116.75;76.28;;;;;;;;;;4972365;28;20464;-76
2021/11/25 11:56:37;;;;;;;114.90;72.15;;;;;;;;;;4960746;28;20122;-75
2021/11/25 11:59:03;;;;;;;128.32;75.53;;;;;;;;;;4964690;28;20061;-76
2021/11/25 12:01:30;;;;;;;140.18;84.30;;;;;;;;;;4973579;28;20031;-74
2021/11/25 12:04:11;;;;;;;122.43;76.85;;;;;;;;;;4976894;28;20031;-76
2021/11/25 12:06:40;;;;;;;100.32;67.35;;;;;;;;;;4979060;28;20046;-77
2021/11/25 12:09:13;;;;;;;98.78;63.80;;;;;;;;;;4976898;28;20077;-74
2021/11/25 12:11:42;;;;;;;104.03;65.05;;;;;;;;;;4977641;28;20063;-74
2021/11/25 12:14:28;;;;;;;95.30;61.33;;;;;;;;;;4973182;28;20038;-77
2021/11/25 12:17:00;;;;;;;101.35;60.67;;;;;;;;;;4959741;28;20473;-77
2021/11/25 12:19:27;;;;;;;96.43;61.53;;;;;;;;;;4975164;28;20038;-78
2021/11/25 12:21:55;;;;;;;98.20;60.60;;;;;;;;;;4979575;28;20026;-75
2021/11/25 12:24:40;;;;;;;99.65;59.80;;;;;;;;;;4987535;28;20029;-75
2021/11/25 12:27:23;;;;;;;92.15;62.92;;;;;;;;;;4975166;28;20098;-76
2021/11/25 12:30:03;;;;;;;95.38;62.17;;;;;;;;;;4974190;28;20027;-76
2021/11/25 12:32:46;;;;;;;91.50;59.92;;;;;;;;;;4973866;28;20035;-76
2021/11/25 12:35:14;;;;;;;97.90;64.40;;;;;;;;;;4977190;28;20046;-76
2021/11/25 12:37:51;;;;;;;104.63;67.57;;;;;;;;;;4973778;28;20484;-75
2021/11/25 12:40:17;;;;;;;99.38;66.05;;;;;;;;;;4974047;28;20050;-75
2021/11/25 12:42:46;;;;;;;99.30;64.80;;;;;;;;;;4961941;28;20041;-75
2021/11/25 12:45:39;;;;;;;104.28;65.47;;;;;;;;;;4981736;28;20449;-79
2021/11/25 12:48:08;;;;;;;96.80;63.60;;;;;;;;;;4919462;29;20537;-74
2021/11/25 12:50:40;;;;;;;98.32;63.92;;;;;;;;;;4924211;29;20040;-80
2021/11/25 12:53:10;;;;;;;94.78;61.40;;;;;;;;;;4931180;29;20062;-75
2021/11/25 12:55:37;;;;;;;96.32;61.47;;;;;;;;;;4913987;29;20051;-74
2021/11/25 12:58:04;;;;;;;85.35;58.20;;;;;;;;;;4906019;29;20415;-74
2021/11/25 13:00:31;;;;;;;113.00;70.45;;;;;;;;;;4914044;29;20034;-77
2021/11/25 13:03:02;;;;;;;106.55;70.82;;;;;;;;;;4902895;29;20031;-76
2021/11/25 13:05:28;;;;;;;93.82;62.10;;;;;;;;;;4916454;29;20036;-76
2021/11/25 13:07:54;;;;;;;105.38;63.72;;;;;;;;;;4921977;29;20035;-78
2021/11/25 13:10:24;;;;;;;94.35;60.67;;;;;;;;;;4924932;29;20148;-74
2021/11/25 13:12:50;;;;;;;91.22;59.83;;;;;;;;;;4923013;29;20032;-77
2021/11/25 13:15:21;;;;;;;86.30;53.85;;;;;;;;;;4904219;29;20067;-73
2021/11/25 13:17:57;;;;;;;86.38;53.03;;;;;;;;;;4917047;29;20188;-73
2021/11/25 13:20:42;;;;;;;76.93;50.40;;;;;;;;;;4915179;29;20086;-75
2021/11/25 13:23:10;;;;;;;81.55;49.80;;;;;;;;;;4916108;29;20088;-74
2021/11/25 13:25:46;;;;;;;80.82;51.05;;;;;;;;;;4963536;28;20416;-74
2021/11/25 13:28:28;;;;;;;75.07;46.58;;;;;;;;;;4974457;28;20023;-75
2021/11/25 13:31:09;;;;;;;84.03;53.25;;;;;;;;;;4976118;28;20034;-74
2021/11/25 13:33:55;;;;;;;91.30;61.25;;;;;;;;;;4976905;28;20031;-73
2021/11/25 13:36:23;;;;;;;46.72;33.75;;;;;;;;;;4971653;28;20058;-74
2021/11/25 13:38:52;;;;;;;55.85;36.60;;;;;;;;;;4964742;28;20126;-74
2021/11/25 13:41:19;;;;;;;85.03;51.90;;;;;;;;;;4970863;28;20034;-76
2021/11/25 13:43:56;;;;;;;110.45;57.78;;;;;;;;;;4979051;28;20037;-74
2021/11/25 13:46:33;;;;;;;90.15;55.38;;;;;;;;;;4977071;28;20497;-74
2021/11/25 13:49:00;;;;;;;41.55;30.63;;;;;;;;;;4970588;28;20066;-74
2021/11/25 13:51:26;;;;;;;42.65;30.25;;;;;;;;;;4964146;29;20086;-76
2021/11/25 13:54:03;;;;;;;43.35;29.60;;;;;;;;;;4967016;28;20059;-79
2021/11/25 13:56:29;;;;;;;44.40;30.60;;;;;;;;;;4982400;28;20031;-77
2021/11/25 13:58:55;;;;;;;45.58;30.80;;;;;;;;;;4960613;28;20039;-75
2021/11/25 14:01:21;;;;;;;44.72;31.05;;;;;;;;;;4954957;29;20038;-75
2021/11/25 14:03:49;;;;;;;48.10;31.73;;;;;;;;;;4955015;29;20025;-73
2021/11/25 14:06:26;;;;;;;49.42;31.80;;;;;;;;;;4965160;28;20385;-74
2021/11/25 14:08:52;;;;;;;47.72;31.60;;;;;;;;;;4962047;28;20039;-75
2021/11/25 14:11:20;;;;;;;46.33;31.90;;;;;;;;;;4954702;29;20031;-75
2021/11/25 14:13:47;;;;;;;46.42;31.95;;;;;;;;;;4972517;28;20081;-74
2021/11/25 14:16:16;;;;;;;50.97;32.55;;;;;;;;;;4976655;28;20403;-75